createdAt,value
2022-08-28T00:01:30.252Z,101732.59
2022-08-28T00:04:01.354Z,101731.53
2022-08-28T00:06:30.008Z,101733.72
2022-08-28T00:08:59.184Z,101733.56
2022-08-28T00:11:27.517Z,101731.59
2022-08-28T00:13:56.722Z,101736.25
2022-08-28T00:16:26.190Z,101728.84
2022-08-28T00:18:56.837Z,101736.94
2022-08-28T00:21:26.292Z,101741.44
2022-08-28T00:23:54.834Z,101742.28
2022-08-28T00:26:39.219Z,101741.09
2022-08-28T00:29:09.490Z,101746.75
2022-08-28T00:31:39.846Z,101747.50
2022-08-28T00:34:12.438Z,101747.03
2022-08-28T00:36:48.050Z,101750.41
2022-08-28T00:39:17.628Z,101748.50
2022-08-28T00:41:51.021Z,101747.91
2022-08-28T00:44:28.335Z,101740.50
2022-08-28T00:46:59.432Z,101751.88
2022-08-28T00:49:31.903Z,101756.25
2022-08-28T00:52:09.083Z,101755.13
2022-08-28T00:54:59.383Z,101751.78
2022-08-28T00:57:32.527Z,101755.97
2022-08-28T01:00:03.479Z,101747.75
2022-08-28T01:02:36.935Z,101744.41
2022-08-28T01:05:09.861Z,101750.25
2022-08-28T01:07:39.927Z,101748.75
2022-08-28T01:10:22.642Z,101746.53
2022-08-28T01:12:52.304Z,101744.88
2022-08-28T01:15:25.087Z,101746.22
2022-08-28T01:18:04.661Z,101741.50
2022-08-28T01:20:44.472Z,101741.94
2022-08-28T01:23:20.024Z,101733.50
2022-08-28T01:25:50.069Z,101738.38
2022-08-28T01:28:18.913Z,101739.22
2022-08-28T01:30:49.187Z,101739.31
2022-08-28T01:33:19.734Z,101743.94
2022-08-28T01:35:56.583Z,101732.81
2022-08-28T01:38:27.141Z,101734.38
2022-08-28T01:40:59.887Z,101737.16
2022-08-28T01:43:31.710Z,101736.19
2022-08-28T01:46:03.285Z,101738.16
2022-08-28T01:48:34.768Z,101737.09
2022-08-28T01:51:03.593Z,101740.84
2022-08-28T01:53:33.878Z,101735.78
2022-08-28T01:56:09.398Z,101735.63
2022-08-28T01:58:38.909Z,101733.22
2022-08-28T02:01:12.069Z,101732.88
2022-08-28T02:03:43.467Z,101731.44
2022-08-28T02:06:12.978Z,101731.31
2022-08-28T02:08:41.392Z,101731.06
2022-08-28T02:11:12.581Z,101721.53
2022-08-28T02:13:42.357Z,101728.03
2022-08-28T02:16:12.836Z,101736.78
2022-08-28T02:18:41.988Z,101736.78
2022-08-28T02:21:11.718Z,101737.00
2022-08-28T02:23:41.811Z,101744.16
2022-08-28T02:26:13.620Z,101739.69
2022-08-28T02:28:43.055Z,101744.41
2022-08-28T02:31:13.305Z,101746.94
2022-08-28T02:33:44.028Z,101747.53
2022-08-28T02:36:14.717Z,101744.25
2022-08-28T02:38:44.190Z,101744.91
2022-08-28T02:41:14.807Z,101752.53
2022-08-28T02:43:43.273Z,101743.78
2022-08-28T02:46:12.028Z,101746.59
2022-08-28T02:48:42.768Z,101745.00
2022-08-28T02:51:13.748Z,101748.03
2022-08-28T02:53:43.428Z,101749.38
2022-08-28T02:56:15.341Z,101744.28
2022-08-28T02:58:44.037Z,101745.28
2022-08-28T03:01:14.743Z,101746.25
2022-08-28T03:03:45.249Z,101738.34
2022-08-28T03:06:14.657Z,101739.47
2022-08-28T03:08:44.202Z,101744.44
2022-08-28T03:11:15.425Z,101746.97
2022-08-28T03:13:43.741Z,101749.00
2022-08-28T03:16:12.875Z,101742.22
2022-08-28T03:18:42.035Z,101741.53
2022-08-28T03:21:11.643Z,101740.56
2022-08-28T03:23:42.068Z,101738.13
2022-08-28T03:26:12.969Z,101735.09
2022-08-28T03:28:45.924Z,101745.75
2022-08-28T03:31:18.273Z,101736.81
2022-08-28T03:33:48.209Z,101739.56
2022-08-28T03:36:19.477Z,101747.22
2022-08-28T03:38:48.009Z,101741.88
2022-08-28T03:41:19.668Z,101739.72
2022-08-28T03:43:49.795Z,101733.41
2022-08-28T03:46:25.228Z,101734.50
2022-08-28T03:48:55.028Z,101735.47
2022-08-28T03:51:29.276Z,101738.13
2022-08-28T03:53:59.130Z,101732.56
2022-08-28T03:56:36.617Z,101738.03
2022-08-28T03:59:06.533Z,101732.69
2022-08-28T04:01:35.233Z,101726.53
2022-08-28T04:04:04.706Z,101731.94
2022-08-28T04:06:33.388Z,101727.00
2022-08-28T04:09:04.836Z,101732.22
2022-08-28T04:11:38.123Z,101741.28
2022-08-28T04:14:08.232Z,101743.22
2022-08-28T04:16:37.941Z,101738.84
2022-08-28T04:19:06.313Z,101738.38
2022-08-28T04:21:34.980Z,101739.47
2022-08-28T04:24:06.779Z,101740.31
2022-08-28T04:26:38.190Z,101743.59
2022-08-28T04:29:08.837Z,101743.34
2022-08-28T04:31:37.477Z,101745.06
2022-08-28T04:34:08.869Z,101747.47
2022-08-28T04:36:37.954Z,101742.63
2022-08-28T04:39:08.881Z,101742.13
2022-08-28T04:41:38.924Z,101747.34
2022-08-28T04:44:11.133Z,101742.97
2022-08-28T04:46:39.920Z,101741.16
2022-08-28T04:49:08.520Z,101748.44
2022-08-28T04:51:41.842Z,101743.97
2022-08-28T04:54:12.070Z,101753.03
2022-08-28T04:56:43.629Z,101748.19
2022-08-28T04:59:14.150Z,101751.59
2022-08-28T05:01:43.934Z,101752.28
2022-08-28T05:04:14.421Z,101752.91
2022-08-28T05:06:46.639Z,101748.91
2022-08-28T05:09:21.044Z,101751.69
2022-08-28T05:11:50.538Z,101750.00
2022-08-28T05:14:22.130Z,101748.28
2022-08-28T05:16:53.258Z,101757.13
2022-08-28T05:19:23.201Z,101760.03
2022-08-28T05:21:52.269Z,101757.13
2022-08-28T05:24:21.653Z,101758.09
2022-08-28T05:26:50.288Z,101756.19
2022-08-28T05:29:19.028Z,101767.06
2022-08-28T05:31:49.201Z,101768.25
2022-08-28T05:34:18.552Z,101773.72
2022-08-28T05:36:47.179Z,101768.38
2022-08-28T05:39:15.818Z,101777.56
2022-08-28T05:41:46.875Z,101770.44
2022-08-28T05:44:17.826Z,101776.75
2022-08-28T05:46:49.105Z,101781.09
2022-08-28T05:49:20.175Z,101794.16
2022-08-28T05:51:49.424Z,101794.25
2022-08-28T05:54:18.604Z,101795.72
2022-08-28T05:56:47.739Z,101796.69
2022-08-28T05:59:17.284Z,101796.47
2022-08-28T06:01:48.171Z,101791.84
2022-08-28T06:04:23.909Z,101794.38
2022-08-28T06:06:53.215Z,101802.97
2022-08-28T06:09:28.957Z,101797.56
2022-08-28T06:12:00.223Z,101798.03
2022-08-28T06:14:30.128Z,101800.34
2022-08-28T06:16:59.859Z,101792.94
2022-08-28T06:19:32.413Z,101799.97
2022-08-28T06:22:07.010Z,101796.47
2022-08-28T06:24:36.445Z,101797.03
2022-08-28T06:27:04.940Z,101799.69
2022-08-28T06:29:33.532Z,101804.94
2022-08-28T06:32:04.778Z,101810.38
2022-08-28T06:34:34.973Z,101807.34
2022-08-28T06:37:03.525Z,101808.41
2022-08-28T06:39:32.489Z,101805.66
2022-08-28T06:42:01.927Z,101808.19
2022-08-28T06:44:32.680Z,101805.38
2022-08-28T06:47:01.473Z,101798.78
2022-08-28T06:49:30.110Z,101801.06
2022-08-28T06:52:00.377Z,101809.63
2022-08-28T06:54:31.356Z,101804.53
2022-08-28T06:57:01.204Z,101802.00
2022-08-28T06:59:29.793Z,101801.03
2022-08-28T07:01:59.700Z,101805.13
2022-08-28T07:04:28.167Z,101802.34
2022-08-28T07:06:56.703Z,101801.34
2022-08-28T07:09:27.206Z,101806.59
2022-08-28T07:12:03.872Z,101812.84
2022-08-28T07:14:32.445Z,101812.47
2022-08-28T07:17:00.938Z,101812.09
2022-08-28T07:19:29.432Z,101814.63
2022-08-28T07:21:58.036Z,101814.25
2022-08-28T07:24:29.827Z,101817.66
2022-08-28T07:26:58.464Z,101819.09
2022-08-28T07:29:27.420Z,101821.63
2022-08-28T07:31:59.192Z,101820.56
2022-08-28T07:34:28.226Z,101830.13
2022-08-28T07:36:58.381Z,101819.56
2022-08-28T07:39:28.402Z,101822.31
2022-08-28T07:41:58.485Z,101828.63
2022-08-28T07:44:44.344Z,101823.84
2022-08-28T07:47:13.181Z,101827.56
2022-08-28T07:49:42.325Z,101826.31
2022-08-28T07:52:12.180Z,101822.19
2022-08-28T07:54:42.162Z,101824.06
2022-08-28T07:57:11.790Z,101835.66
2022-08-28T07:59:43.411Z,101835.75
2022-08-28T08:02:12.331Z,101830.63
2022-08-28T08:04:41.371Z,101834.03
2022-08-28T08:07:09.894Z,101835.16
2022-08-28T08:09:39.979Z,101833.78
2022-08-28T08:12:12.801Z,101835.25
2022-08-28T08:14:43.615Z,101835.56
2022-08-28T08:17:13.231Z,101831.00
2022-08-28T08:19:42.042Z,101831.31
2022-08-28T08:22:10.675Z,101837.44
2022-08-28T08:24:39.198Z,101840.75
2022-08-28T08:27:08.466Z,101846.84
2022-08-28T08:29:42.714Z,101841.22
2022-08-28T08:32:12.925Z,101842.59
2022-08-28T08:34:43.518Z,101839.97
2022-08-28T08:37:14.119Z,101841.66
2022-08-28T08:39:44.201Z,101838.34
2022-08-28T08:42:24.047Z,101839.31
2022-08-28T08:44:56.942Z,101848.72
2022-08-28T08:47:37.651Z,101844.72
2022-08-28T08:50:13.724Z,101845.06
2022-08-28T08:52:53.846Z,101839.31
2022-08-28T08:55:28.636Z,101844.38
2022-08-28T08:58:10.994Z,101841.44
2022-08-28T09:00:48.188Z,101841.19
2022-08-28T09:03:27.767Z,101842.53
2022-08-28T09:05:59.982Z,101833.25
2022-08-28T09:08:35.475Z,101844.59
2022-08-28T09:11:16.618Z,101842.28
2022-08-28T09:13:54.577Z,101841.03
2022-08-28T09:16:32.113Z,101843.22
2022-08-28T09:19:02.722Z,101840.88
2022-08-28T09:21:33.734Z,101832.19
2022-08-28T09:24:11.072Z,101833.63
2022-08-28T09:26:41.959Z,101825.03
2022-08-28T09:29:19.541Z,101824.88
2022-08-28T09:31:50.939Z,101828.69
2022-08-28T09:34:36.678Z,101830.94
2022-08-28T09:37:09.846Z,101824.31
2022-08-28T09:39:46.659Z,101820.81
2022-08-28T09:42:41.406Z,101824.19
2022-08-28T09:45:18.889Z,101826.16
2022-08-28T09:47:51.480Z,101814.19
2022-08-28T09:50:33.313Z,101826.72
2022-08-28T09:53:18.553Z,101821.22
2022-08-28T09:55:58.420Z,101816.13
2022-08-28T09:58:36.213Z,101826.59
2022-08-28T10:01:16.937Z,101829.34
2022-08-28T10:04:00.448Z,101835.09
2022-08-28T10:06:33.983Z,101835.63
2022-08-28T10:09:18.246Z,101832.28
2022-08-28T10:11:56.424Z,101826.03
2022-08-28T10:14:45.675Z,101816.91
2022-08-28T10:17:26.766Z,101825.00
2022-08-28T10:20:06.035Z,101831.56
2022-08-28T10:22:44.933Z,101824.34
2022-08-28T10:25:23.765Z,101823.16
2022-08-28T10:28:17.188Z,101823.44
2022-08-28T10:31:01.731Z,101827.03
2022-08-28T10:33:55.137Z,101825.25
2022-08-28T10:36:33.912Z,101834.22
2022-08-28T10:39:15.748Z,101833.72
2022-08-28T10:41:50.104Z,101830.56
2022-08-28T10:44:24.644Z,101832.13
2022-08-28T10:46:56.986Z,101840.69
2022-08-28T10:49:30.290Z,101837.28
2022-08-28T10:52:04.994Z,101841.16
2022-08-28T10:54:41.108Z,101835.78
2022-08-28T10:57:21.001Z,101836.25
2022-08-28T10:59:53.937Z,101837.38
2022-08-28T11:02:27.365Z,101835.38
2022-08-28T11:04:58.820Z,101845.28
2022-08-28T11:07:34.097Z,101848.44
2022-08-28T11:10:20.004Z,101844.16
2022-08-28T11:12:52.169Z,101853.50
2022-08-28T11:15:53.682Z,101855.16
2022-08-28T11:18:57.530Z,101851.72
2022-08-28T11:21:29.051Z,101855.78
2022-08-28T11:24:07.066Z,101852.00
2022-08-28T11:26:42.793Z,101855.91
2022-08-28T11:29:12.336Z,101849.41
2022-08-28T11:31:43.557Z,101853.16
2022-08-28T11:34:44.638Z,101862.19
2022-08-28T11:37:40.721Z,101859.09
2022-08-28T11:40:19.537Z,101868.09
2022-08-28T11:42:49.863Z,101859.63
2022-08-28T11:45:24.584Z,101860.47
2022-08-28T11:47:57.971Z,101864.16
2022-08-28T11:51:08.045Z,101861.22
2022-08-28T11:53:54.637Z,101857.50
2022-08-28T11:56:59.390Z,101855.09
2022-08-28T12:00:14.048Z,101858.47
2022-08-28T12:03:14.491Z,101852.59
2022-08-28T12:05:50.574Z,101860.69
2022-08-28T12:09:10.581Z,101854.66
2022-08-28T12:11:54.623Z,101856.75
2022-08-28T12:15:01.273Z,101852.91
2022-08-28T12:17:54.518Z,101858.03
2022-08-28T12:20:31.002Z,101856.19
2022-08-28T12:23:04.321Z,101857.03
2022-08-28T12:25:39.910Z,101858.50
2022-08-28T12:28:21.281Z,101848.78
2022-08-28T12:30:59.059Z,101852.00
2022-08-28T12:33:42.859Z,101850.16
2022-08-28T12:36:19.599Z,101861.84
2022-08-28T12:38:53.192Z,101854.66
2022-08-28T12:41:25.104Z,101851.13
2022-08-28T12:43:57.466Z,101850.13
2022-08-28T12:46:30.960Z,101847.00
2022-08-28T12:49:03.581Z,101854.66
2022-08-28T12:51:33.894Z,101846.03
2022-08-28T12:54:05.477Z,101854.28
2022-08-28T12:56:38.120Z,101846.69
2022-08-28T12:59:27.233Z,101844.59
2022-08-28T13:02:02.693Z,101855.59
2022-08-28T13:04:38.957Z,101848.59
2022-08-28T13:07:12.918Z,101850.63
2022-08-28T13:09:49.833Z,101853.88
2022-08-28T13:12:23.629Z,101861.03
2022-08-28T13:15:07.775Z,101851.34
2022-08-28T13:17:49.234Z,101850.34
2022-08-28T13:20:32.389Z,101857.66
2022-08-28T13:23:01.949Z,101855.16
2022-08-28T13:25:33.794Z,101852.06
2022-08-28T13:28:05.009Z,101851.34
2022-08-28T13:30:35.791Z,101852.88
2022-08-28T13:33:20.479Z,101853.66
2022-08-28T13:35:51.464Z,101862.19
2022-08-28T13:38:26.930Z,101861.63
2022-08-28T13:41:01.806Z,101860.22
2022-08-28T13:43:50.974Z,101866.13
2022-08-28T13:46:25.772Z,101865.03
2022-08-28T13:48:54.357Z,101861.06
2022-08-28T13:51:26.645Z,101861.22
2022-08-28T13:54:00.623Z,101866.16
2022-08-28T13:56:37.903Z,101865.31
2022-08-28T13:59:13.281Z,101856.56
2022-08-28T14:01:59.860Z,101862.06
2022-08-28T14:04:28.606Z,101857.53
2022-08-28T14:06:58.786Z,101856.00
2022-08-28T14:09:28.153Z,101855.28
2022-08-28T14:11:57.576Z,101852.34
2022-08-28T14:14:26.194Z,101851.22
2022-08-28T14:16:56.883Z,101848.00
2022-08-28T14:19:26.357Z,101845.56
2022-08-28T14:21:55.466Z,101839.97
2022-08-28T14:24:27.261Z,101829.94
2022-08-28T14:26:55.993Z,101839.38
2022-08-28T14:29:24.488Z,101831.94
2022-08-28T14:31:53.480Z,101829.41
2022-08-28T14:34:24.037Z,101833.47
2022-08-28T14:36:55.672Z,101835.28
2022-08-28T14:39:28.617Z,101839.41
2022-08-28T14:41:57.966Z,101846.16
2022-08-28T14:44:27.113Z,101835.44
2022-08-28T14:46:56.946Z,101825.44
2022-08-28T14:49:27.126Z,101830.19
2022-08-28T14:51:57.706Z,101826.66
2022-08-28T14:54:28.068Z,101826.41
2022-08-28T14:56:57.049Z,101828.31
2022-08-28T14:59:31.066Z,101828.47
2022-08-28T15:02:02.556Z,101828.19
2022-08-28T15:04:35.593Z,101835.69
2022-08-28T15:07:06.897Z,101820.28
2022-08-28T15:09:39.903Z,101830.19
2022-08-28T15:12:09.156Z,101818.03
2022-08-28T15:14:38.332Z,101822.97
2022-08-28T15:17:08.703Z,101822.25
2022-08-28T15:19:37.142Z,101818.91
2022-08-28T15:22:05.827Z,101820.63
2022-08-28T15:24:34.922Z,101819.63
2022-08-28T15:27:07.592Z,101819.88
2022-08-28T15:29:36.020Z,101828.38
2022-08-28T15:32:10.246Z,101829.28
2022-08-28T15:34:44.623Z,101828.75
2022-08-28T15:37:14.030Z,101829.03
2022-08-28T15:40:04.528Z,101820.84
2022-08-28T15:42:34.644Z,101816.56
2022-08-28T15:45:03.241Z,101824.19
2022-08-28T15:47:31.801Z,101819.78
2022-08-28T15:50:01.613Z,101825.88
2022-08-28T15:52:34.192Z,101825.44
2022-08-28T15:55:02.921Z,101831.63
2022-08-28T15:57:31.663Z,101824.72
2022-08-28T16:00:02.298Z,101814.75
2022-08-28T16:02:31.959Z,101821.94
2022-08-28T16:05:01.593Z,101813.75
2022-08-28T16:07:30.614Z,101822.91
2022-08-28T16:09:59.330Z,101814.59
2022-08-28T16:12:27.970Z,101824.72
2022-08-28T16:14:56.401Z,101823.03
2022-08-28T16:17:26.432Z,101829.22
2022-08-28T16:19:55.127Z,101837.16
2022-08-28T16:22:25.076Z,101833.47
2022-08-28T16:24:54.721Z,101829.25
2022-08-28T16:27:25.615Z,101840.25
2022-08-28T16:29:54.455Z,101831.94
2022-08-28T16:32:23.410Z,101830.94
2022-08-28T16:34:56.648Z,101827.16
2022-08-28T16:37:37.751Z,101827.56
2022-08-28T16:40:11.036Z,101829.41
2022-08-28T16:42:41.841Z,101837.28
2022-08-28T16:45:20.119Z,101832.19
2022-08-28T16:47:50.591Z,101831.09
2022-08-28T16:50:21.077Z,101831.78
2022-08-28T16:52:50.745Z,101827.44
2022-08-28T16:55:21.213Z,101826.03
2022-08-28T16:57:49.842Z,101830.09
2022-08-28T17:00:20.534Z,101828.41
2022-08-28T17:02:56.519Z,101824.06
2022-08-28T17:05:26.727Z,101822.91
2022-08-28T17:07:56.356Z,101828.38
2022-08-28T17:10:26.202Z,101827.84
2022-08-28T17:12:54.885Z,101831.78
2022-08-28T17:15:28.404Z,101828.13
2022-08-28T17:17:58.196Z,101826.03
2022-08-28T17:20:47.938Z,101818.84
2022-08-28T17:23:16.576Z,101818.94
2022-08-28T17:25:45.182Z,101820.09
2022-08-28T17:28:14.773Z,101820.53
2022-08-28T17:30:47.114Z,101820.66
2022-08-28T17:33:15.592Z,101814.06
2022-08-28T17:35:46.644Z,101814.91
2022-08-28T17:38:20.786Z,101818.84
2022-08-28T17:40:49.899Z,101811.66
2022-08-28T17:43:18.983Z,101820.09
2022-08-28T17:45:47.909Z,101826.97
2022-08-28T17:48:18.702Z,101816.84
2022-08-28T17:50:50.767Z,101815.41
2022-08-28T17:53:22.602Z,101818.78
2022-08-28T17:55:54.574Z,101817.66
2022-08-28T17:58:23.157Z,101821.03
2022-08-28T18:00:53.344Z,101820.59
2022-08-28T18:03:23.710Z,101821.59
2022-08-28T18:05:54.759Z,101828.09
2022-08-28T18:08:24.058Z,101816.81
2022-08-28T18:11:04.252Z,101816.38
2022-08-28T18:13:33.894Z,101822.13
2022-08-28T18:16:02.963Z,101835.44
2022-08-28T18:18:36.469Z,101829.81
2022-08-28T18:21:07.458Z,101831.59
2022-08-28T18:23:36.299Z,101827.66
2022-08-28T18:26:06.355Z,101829.88
2022-08-28T18:28:36.053Z,101830.19
2022-08-28T18:31:06.489Z,101840.72
2022-08-28T18:33:37.003Z,101831.31
2022-08-28T18:36:11.469Z,101835.22
2022-08-28T18:38:41.054Z,101832.13
2022-08-28T18:41:11.246Z,101837.06
2022-08-28T18:43:41.216Z,101846.47
2022-08-28T18:46:17.185Z,101845.06
2022-08-28T18:48:47.143Z,101849.84
2022-08-28T18:51:21.678Z,101846.84
2022-08-28T18:53:51.174Z,101845.56
2022-08-28T18:56:20.477Z,101855.66
2022-08-28T18:58:51.639Z,101851.16
2022-08-28T19:01:20.591Z,101859.25
2022-08-28T19:03:50.191Z,101863.16
2022-08-28T19:06:25.331Z,101862.06
2022-08-28T19:08:53.888Z,101861.91
2022-08-28T19:11:22.880Z,101866.41
2022-08-28T19:13:51.605Z,101873.38
2022-08-28T19:16:22.528Z,101874.09
2022-08-28T19:18:53.190Z,101871.56
2022-08-28T19:21:23.364Z,101871.81
2022-08-28T19:23:55.966Z,101874.88
2022-08-28T19:26:25.888Z,101885.00
2022-08-28T19:28:55.382Z,101888.75
2022-08-28T19:31:25.519Z,101895.22
2022-08-28T19:33:55.814Z,101893.03
2022-08-28T19:36:30.161Z,101899.59
2022-08-28T19:38:58.608Z,101908.47
2022-08-28T19:41:28.324Z,101910.81
2022-08-28T19:43:57.789Z,101909.84
2022-08-28T19:46:26.764Z,101917.97
2022-08-28T19:48:57.361Z,101916.41
2022-08-28T19:51:27.871Z,101920.75
2022-08-28T19:53:58.899Z,101919.78
2022-08-28T19:56:30.394Z,101922.22
2022-08-28T19:59:01.954Z,101919.41
2022-08-28T20:01:33.075Z,101918.44
2022-08-28T20:04:02.336Z,101927.41
2022-08-28T20:06:35.098Z,101929.59
2022-08-28T20:09:04.425Z,101930.84
2022-08-28T20:11:33.582Z,101935.47
2022-08-28T20:14:07.976Z,101932.78
2022-08-28T20:16:41.734Z,101932.06
2022-08-28T20:19:12.320Z,101933.03
2022-08-28T20:21:45.731Z,101935.69
2022-08-28T20:24:18.076Z,101936.44
2022-08-28T20:26:46.719Z,101934.72
2022-08-28T20:29:16.937Z,101934.47
2022-08-28T20:31:48.232Z,101938.38
2022-08-28T20:34:18.419Z,101942.53
2022-08-28T20:36:48.974Z,101933.78
2022-08-28T20:39:18.333Z,101940.25
2022-08-28T20:41:47.533Z,101944.97
2022-08-28T20:44:18.713Z,101949.56
2022-08-28T20:46:51.481Z,101952.34
2022-08-28T20:49:24.074Z,101949.09
2022-08-28T20:51:57.904Z,101945.56
2022-08-28T20:54:29.350Z,101948.25
2022-08-28T20:56:59.625Z,101950.91
2022-08-28T20:59:35.456Z,101952.72
2022-08-28T21:02:11.846Z,101953.19
2022-08-28T21:04:42.643Z,101948.72
2022-08-28T21:07:13.478Z,101951.28
2022-08-28T21:10:06.180Z,101957.81
2022-08-28T21:12:31.152Z,101959.03
2022-08-28T21:15:00.100Z,101956.50
2022-08-28T21:17:30.751Z,101965.59
2022-08-28T21:20:02.937Z,101962.06
2022-08-28T21:22:36.022Z,101964.63
2022-08-28T21:25:07.365Z,101968.25
2022-08-28T21:27:36.771Z,101964.00
2022-08-28T21:30:07.993Z,101974.09
2022-08-28T21:32:42.577Z,101977.84
2022-08-28T21:35:13.561Z,101982.31
2022-08-28T21:37:45.582Z,101976.00
2022-08-28T21:40:15.976Z,101979.53
2022-08-28T21:42:47.869Z,101981.47
2022-08-28T21:45:16.447Z,101985.97
2022-08-28T21:47:44.900Z,101977.22
2022-08-28T21:50:14.106Z,101982.44
2022-08-28T21:52:42.799Z,101984.28
2022-08-28T21:55:16.380Z,101983.28
2022-08-28T21:57:45.288Z,101987.16
2022-08-28T22:00:18.227Z,101991.03
2022-08-28T22:02:50.422Z,101987.53
2022-08-28T22:05:20.719Z,101990.44
2022-08-28T22:07:51.250Z,101988.63
2022-08-28T22:10:23.423Z,101993.22
2022-08-28T22:12:53.119Z,101996.03
2022-08-28T22:15:23.346Z,102004.03
2022-08-28T22:17:53.134Z,102003.03
2022-08-28T22:20:21.593Z,102009.22
2022-08-28T22:23:07.759Z,102005.59
2022-08-28T22:25:40.831Z,102005.81
2022-08-28T22:28:10.754Z,101999.78
2022-08-28T22:30:40.631Z,102006.69
2022-08-28T22:33:10.955Z,102006.56
2022-08-28T22:35:40.224Z,102009.00
2022-08-28T22:38:11.608Z,102008.88
2022-08-28T22:40:41.858Z,102017.09
2022-08-28T22:43:10.589Z,102009.34
2022-08-28T22:45:39.439Z,102015.41
2022-08-28T22:48:08.338Z,102006.56
2022-08-28T22:50:36.925Z,102010.91
2022-08-28T22:53:06.730Z,102011.75
2022-08-28T22:55:37.833Z,102011.88
2022-08-28T22:58:11.335Z,102014.69
2022-08-28T23:00:41.505Z,102013.09
2022-08-28T23:03:13.201Z,102014.16
2022-08-28T23:05:43.733Z,102014.16
2022-08-28T23:08:12.247Z,102015.16
2022-08-28T23:10:57.930Z,102016.97
2022-08-28T23:13:31.044Z,102016.72
2022-08-28T23:15:59.620Z,102012.38
2022-08-28T23:18:46.309Z,102001.81
2022-08-28T23:21:20.425Z,102012.38
2022-08-28T23:23:50.193Z,102012.25
2022-08-28T23:26:25.490Z,102005.22
2022-08-28T23:28:56.575Z,101999.06
2022-08-28T23:31:25.161Z,102008.13
2022-08-28T23:34:03.331Z,102002.19
2022-08-28T23:36:35.851Z,102002.19
2022-08-28T23:39:12.066Z,101992.50
2022-08-28T23:41:41.785Z,102006.03
2022-08-28T23:44:11.924Z,101993.84
2022-08-28T23:46:42.375Z,101995.53
2022-08-28T23:49:11.855Z,102001.09
2022-08-28T23:51:43.761Z,102002.66
2022-08-28T23:54:13.374Z,102007.03
2022-08-28T23:56:43.181Z,101998.06
2022-08-28T23:59:14.412Z,101999.88
